sensor_id;sensor_type;location;lat;lon;timestamp;P1;durP1;ratioP1;P2;durP2;ratioP2
6926;SDS011;3503;50.07605000;8.86719200;2023-08-01T00:01:12;9.57;;;4.17;;
6926;SDS011;3503;50.07605000;8.86719200;2023-08-01T00:16:15;11.40;;;4.70;;
6926;SDS011;3503;50.07605000;8.86719200;2023-08-01T00:31:18;15.20;;;4.63;;
6926;SDS011;3503;50.07605000;8.86719200;2023-08-01T00:46:20;10.87;;;3.90;;
6926;SDS011;3503;50.07605000;8.86719200;2023-08-01T01:01:23;10.63;;;4.77;;
6926;SDS011;3503;50.07605000;8.86719200;2023-08-01T01:16:26;10.17;;;4.60;;
6926;SDS011;3503;50.07605000;8.86719200;2023-08-01T01:31:28;11.17;;;4.40;;
6926;SDS011;3503;50.07605000;8.86719200;2023-08-01T01:46:32;14.00;;;5.60;;
6926;SDS011;3503;50.07605000;8.86719200;2023-08-01T02:01:35;11.73;;;5.30;;
6926;SDS011;3503;50.07605000;8.86719200;2023-08-01T02:16:37;15.73;;;5.73;;
6926;SDS011;3503;50.07605000;8.86719200;2023-08-01T02:31:40;12.50;;;5.33;;
6926;SDS011;3503;50.07605000;8.86719200;2023-08-01T02:46:43;11.80;;;4.53;;
6926;SDS011;3503;50.07605000;8.86719200;2023-08-01T03:01:45;15.13;;;5.53;;
6926;SDS011;3503;50.07605000;8.86719200;2023-08-01T03:16:48;11.13;;;3.97;;
6926;SDS011;3503;50.07605000;8.86719200;2023-08-01T03:31:51;6.87;;;3.73;;
6926;SDS011;3503;50.07605000;8.86719200;2023-08-01T03:46:53;9.60;;;4.40;;
6926;SDS011;3503;50.07605000;8.86719200;2023-08-01T04:01:56;11.50;;;4.73;;
6926;SDS011;3503;50.07605000;8.86719200;2023-08-01T04:16:58;10.73;;;3.90;;
6926;SDS011;3503;50.07605000;8.86719200;2023-08-01T04:32:01;11.43;;;4.23;;
6926;SDS011;3503;50.07605000;8.86719200;2023-08-01T04:47:04;15.33;;;4.53;;
6926;SDS011;3503;50.07605000;8.86719200;2023-08-01T05:02:07;12.20;;;3.67;;
6926;SDS011;3503;50.07605000;8.86719200;2023-08-01T05:17:10;5.93;;;3.47;;
6926;SDS011;3503;50.07605000;8.86719200;2023-08-01T05:32:12;5.50;;;3.47;;
6926;SDS011;3503;50.07605000;8.86719200;2023-08-01T05:47:15;8.70;;;3.13;;
6926;SDS011;3503;50.07605000;8.86719200;2023-08-01T06:02:18;9.90;;;4.17;;
6926;SDS011;3503;50.07605000;8.86719200;2023-08-01T06:17:20;9.97;;;4.17;;
6926;SDS011;3503;50.07605000;8.86719200;2023-08-01T06:32:23;8.60;;;4.60;;
6926;SDS011;3503;50.07605000;8.86719200;2023-08-01T06:47:26;8.40;;;4.10;;
6926;SDS011;3503;50.07605000;8.86719200;2023-08-01T07:02:29;8.80;;;3.90;;
6926;SDS011;3503;50.07605000;8.86719200;2023-08-01T07:17:31;5.50;;;1.67;;
6926;SDS011;3503;50.07605000;8.86719200;2023-08-01T07:32:34;2.20;;;1.27;;
6926;SDS011;3503;50.07605000;8.86719200;2023-08-01T07:47:38;3.77;;;1.80;;
6926;SDS011;3503;50.07605000;8.86719200;2023-08-01T08:02:42;3.23;;;1.50;;
6926;SDS011;3503;50.07605000;8.86719200;2023-08-01T08:17:44;3.40;;;1.80;;
6926;SDS011;3503;50.07605000;8.86719200;2023-08-01T08:32:47;3.00;;;1.50;;
6926;SDS011;3503;50.07605000;8.86719200;2023-08-01T08:47:52;3.17;;;1.40;;
6926;SDS011;3503;50.07605000;8.86719200;2023-08-01T09:02:56;5.70;;;1.10;;
6926;SDS011;3503;50.07605000;8.86719200;2023-08-01T09:17:58;3.67;;;1.60;;
6926;SDS011;3503;50.07605000;8.86719200;2023-08-01T09:33:02;3.70;;;0.90;;
6926;SDS011;3503;50.07605000;8.86719200;2023-08-01T09:48:05;7.80;;;1.03;;
6926;SDS011;3503;50.07605000;8.86719200;2023-08-01T10:03:08;2.97;;;1.03;;
6926;SDS011;3503;50.07605000;8.86719200;2023-08-01T10:18:11;2.40;;;0.73;;
6926;SDS011;3503;50.07605000;8.86719200;2023-08-01T10:33:14;1.93;;;1.00;;
6926;SDS011;3503;50.07605000;8.86719200;2023-08-01T10:48:17;2.57;;;1.10;;
6926;SDS011;3503;50.07605000;8.86719200;2023-08-01T11:03:19;3.00;;;1.30;;
6926;SDS011;3503;50.07605000;8.86719200;2023-08-01T11:18:22;2.77;;;1.20;;
6926;SDS011;3503;50.07605000;8.86719200;2023-08-01T11:33:25;1.80;;;0.80;;
6926;SDS011;3503;50.07605000;8.86719200;2023-08-01T11:48:27;2.53;;;1.20;;
6926;SDS011;3503;50.07605000;8.86719200;2023-08-01T12:03:30;3.07;;;1.17;;
6926;SDS011;3503;50.07605000;8.86719200;2023-08-01T12:18:34;2.30;;;1.20;;
6926;SDS011;3503;50.07605000;8.86719200;2023-08-01T12:33:38;4.03;;;1.30;;
6926;SDS011;3503;50.07605000;8.86719200;2023-08-01T12:48:42;2.30;;;1.27;;
6926;SDS011;3503;50.07605000;8.86719200;2023-08-01T13:03:46;3.07;;;1.00;;
6926;SDS011;3503;50.07605000;8.86719200;2023-08-01T13:18:49;3.10;;;1.30;;
6926;SDS011;3503;50.07605000;8.86719200;2023-08-01T13:33:53;6.40;;;1.70;;
6926;SDS011;3503;50.07605000;8.86719200;2023-08-01T13:48:56;2.83;;;1.40;;
6926;SDS011;3503;50.07605000;8.86719200;2023-08-01T14:03:59;3.40;;;1.10;;
6926;SDS011;3503;50.07605000;8.86719200;2023-08-01T14:19:03;11.90;;;2.00;;
6926;SDS011;3503;50.07605000;8.86719200;2023-08-01T14:34:07;6.63;;;2.53;;
6926;SDS011;3503;50.07605000;8.86719200;2023-08-01T14:49:10;5.13;;;2.30;;
6926;SDS011;3503;50.07605000;8.86719200;2023-08-01T15:04:13;9.83;;;2.30;;
6926;SDS011;3503;50.07605000;8.86719200;2023-08-01T15:19:15;5.17;;;1.40;;
6926;SDS011;3503;50.07605000;8.86719200;2023-08-01T15:34:18;2.93;;;1.40;;
6926;SDS011;3503;50.07605000;8.86719200;2023-08-01T15:49:21;3.83;;;1.57;;
6926;SDS011;3503;50.07605000;8.86719200;2023-08-01T16:04:24;4.23;;;1.00;;
6926;SDS011;3503;50.07605000;8.86719200;2023-08-01T16:19:26;3.40;;;1.20;;
6926;SDS011;3503;50.07605000;8.86719200;2023-08-01T16:34:29;4.80;;;1.43;;
6926;SDS011;3503;50.07605000;8.86719200;2023-08-01T16:49:32;10.80;;;3.77;;
6926;SDS011;3503;50.07605000;8.86719200;2023-08-01T17:04:36;4.60;;;1.10;;
6926;SDS011;3503;50.07605000;8.86719200;2023-08-01T17:19:38;2.40;;;1.03;;
6926;SDS011;3503;50.07605000;8.86719200;2023-08-01T17:34:41;2.03;;;1.00;;
6926;SDS011;3503;50.07605000;8.86719200;2023-08-01T17:49:47;6.33;;;1.83;;
6926;SDS011;3503;50.07605000;8.86719200;2023-08-01T18:04:50;5.33;;;1.17;;
6926;SDS011;3503;50.07605000;8.86719200;2023-08-01T18:19:52;10.07;;;2.00;;
6926;SDS011;3503;50.07605000;8.86719200;2023-08-01T18:34:55;8.40;;;1.90;;
6926;SDS011;3503;50.07605000;8.86719200;2023-08-01T18:50:00;2.50;;;0.97;;
6926;SDS011;3503;50.07605000;8.86719200;2023-08-01T19:05:04;5.30;;;1.43;;
6926;SDS011;3503;50.07605000;8.86719200;2023-08-01T19:20:08;7.53;;;2.53;;
6926;SDS011;3503;50.07605000;8.86719200;2023-08-01T19:35:11;4.17;;;1.60;;
6926;SDS011;3503;50.07605000;8.86719200;2023-08-01T19:50:14;4.17;;;1.67;;
6926;SDS011;3503;50.07605000;8.86719200;2023-08-01T20:05:17;3.40;;;1.10;;
6926;SDS011;3503;50.07605000;8.86719200;2023-08-01T20:20:20;7.23;;;1.43;;
6926;SDS011;3503;50.07605000;8.86719200;2023-08-01T20:35:22;2.50;;;1.20;;
6926;SDS011;3503;50.07605000;8.86719200;2023-08-01T20:50:25;8.73;;;2.30;;
6926;SDS011;3503;50.07605000;8.86719200;2023-08-01T21:05:28;7.93;;;2.10;;
6926;SDS011;3503;50.07605000;8.86719200;2023-08-01T21:20:30;7.50;;;2.07;;
6926;SDS011;3503;50.07605000;8.86719200;2023-08-01T21:35:33;5.83;;;2.20;;
6926;SDS011;3503;50.07605000;8.86719200;2023-08-01T21:50:36;7.40;;;1.90;;
6926;SDS011;3503;50.07605000;8.86719200;2023-08-01T22:05:39;10.40;;;2.10;;
6926;SDS011;3503;50.07605000;8.86719200;2023-08-01T22:20:42;5.43;;;2.03;;
6926;SDS011;3503;50.07605000;8.86719200;2023-08-01T22:35:44;7.40;;;1.67;;
6926;SDS011;3503;50.07605000;8.86719200;2023-08-01T22:50:48;4.70;;;2.30;;
6926;SDS011;3503;50.07605000;8.86719200;2023-08-01T23:05:51;4.90;;;2.30;;
6926;SDS011;3503;50.07605000;8.86719200;2023-08-01T23:20:57;7.73;;;2.57;;
6926;SDS011;3503;50.07605000;8.86719200;2023-08-01T23:36:02;10.57;;;2.70;;
6926;SDS011;3503;50.07605000;8.86719200;2023-08-01T23:51:04;8.20;;;2.97;;
